sensor_id;sensor_type;location;lat;lon;timestamp;P1;durP1;ratioP1;P2;durP2;ratioP2
71610;SDS011;59459;51.172;6.682;2022-12-28T00:00:44;5.00;;;1.60;;
71610;SDS011;59459;51.172;6.682;2022-12-28T00:03:09;4.90;;;1.23;;
71610;SDS011;59459;51.172;6.682;2022-12-28T00:05:34;7.63;;;2.00;;
71610;SDS011;59459;51.172;6.682;2022-12-28T00:08:00;3.27;;;1.10;;
71610;SDS011;59459;51.172;6.682;2022-12-28T00:10:25;5.30;;;1.03;;
71610;SDS011;59459;51.172;6.682;2022-12-28T00:12:50;4.83;;;0.90;;
71610;SDS011;59459;51.172;6.682;2022-12-28T00:15:15;5.07;;;0.93;;
71610;SDS011;59459;51.172;6.682;2022-12-28T00:17:40;6.83;;;1.40;;
71610;SDS011;59459;51.172;6.682;2022-12-28T00:20:06;5.27;;;1.70;;
71610;SDS011;59459;51.172;6.682;2022-12-28T00:22:31;7.43;;;1.70;;
71610;SDS011;59459;51.172;6.682;2022-12-28T00:24:56;6.70;;;1.60;;
71610;SDS011;59459;51.172;6.682;2022-12-28T00:27:21;7.03;;;1.63;;
71610;SDS011;59459;51.172;6.682;2022-12-28T00:29:46;5.63;;;1.50;;
71610;SDS011;59459;51.172;6.682;2022-12-28T00:32:12;6.47;;;1.67;;
71610;SDS011;59459;51.172;6.682;2022-12-28T00:34:37;7.70;;;1.97;;
71610;SDS011;59459;51.172;6.682;2022-12-28T00:37:02;6.00;;;1.97;;
71610;SDS011;59459;51.172;6.682;2022-12-28T00:39:27;6.33;;;2.00;;
71610;SDS011;59459;51.172;6.682;2022-12-28T00:41:52;11.67;;;2.00;;
71610;SDS011;59459;51.172;6.682;2022-12-28T00:44:18;6.67;;;1.90;;
71610;SDS011;59459;51.172;6.682;2022-12-28T00:46:43;7.67;;;1.87;;
71610;SDS011;59459;51.172;6.682;2022-12-28T00:49:08;6.30;;;1.83;;
71610;SDS011;59459;51.172;6.682;2022-12-28T00:51:34;7.07;;;1.80;;
71610;SDS011;59459;51.172;6.682;2022-12-28T00:53:59;8.53;;;2.00;;
71610;SDS011;59459;51.172;6.682;2022-12-28T00:56:24;11.13;;;2.23;;
71610;SDS011;59459;51.172;6.682;2022-12-28T00:58:49;9.50;;;2.80;;
71610;SDS011;59459;51.172;6.682;2022-12-28T01:01:19;6.03;;;1.90;;
71610;SDS011;59459;51.172;6.682;2022-12-28T01:03:45;6.20;;;1.92;;
71610;SDS011;59459;51.172;6.682;2022-12-28T01:06:11;8.53;;;2.43;;
71610;SDS011;59459;51.172;6.682;2022-12-28T01:08:36;5.97;;;2.13;;
71610;SDS011;59459;51.172;6.682;2022-12-28T01:11:09;6.20;;;1.93;;
71610;SDS011;59459;51.172;6.682;2022-12-28T01:13:34;7.28;;;1.42;;
71610;SDS011;59459;51.172;6.682;2022-12-28T01:16:00;6.95;;;1.85;;
71610;SDS011;59459;51.172;6.682;2022-12-28T01:18:33;7.63;;;1.77;;
71610;SDS011;59459;51.172;6.682;2022-12-28T01:20:58;7.37;;;1.53;;
71610;SDS011;59459;51.172;6.682;2022-12-28T01:23:23;7.27;;;2.07;;
71610;SDS011;59459;51.172;6.682;2022-12-28T01:25:48;8.53;;;1.97;;
71610;SDS011;59459;51.172;6.682;2022-12-28T01:28:13;5.57;;;1.67;;
71610;SDS011;59459;51.172;6.682;2022-12-28T01:30:39;4.13;;;1.60;;
71610;SDS011;59459;51.172;6.682;2022-12-28T01:33:04;6.93;;;1.70;;
71610;SDS011;59459;51.172;6.682;2022-12-28T01:35:29;5.20;;;1.70;;
71610;SDS011;59459;51.172;6.682;2022-12-28T01:37:55;4.73;;;1.50;;
71610;SDS011;59459;51.172;6.682;2022-12-28T01:40:20;8.47;;;2.10;;
71610;SDS011;59459;51.172;6.682;2022-12-28T01:42:45;9.53;;;1.47;;
71610;SDS011;59459;51.172;6.682;2022-12-28T01:45:14;7.90;;;2.00;;
71610;SDS011;59459;51.172;6.682;2022-12-28T01:47:40;5.90;;;1.70;;
71610;SDS011;59459;51.172;6.682;2022-12-28T01:50:09;7.03;;;2.07;;
71610;SDS011;59459;51.172;6.682;2022-12-28T01:52:36;6.80;;;1.95;;
71610;SDS011;59459;51.172;6.682;2022-12-28T01:55:13;9.85;;;1.95;;
71610;SDS011;59459;51.172;6.682;2022-12-28T01:58:22;10.52;;;2.10;;
71610;SDS011;59459;51.172;6.682;2022-12-28T02:00:28;7.20;;;1.60;;
71610;SDS011;59459;51.172;6.682;2022-12-28T02:02:54;7.07;;;1.52;;
71610;SDS011;59459;51.172;6.682;2022-12-28T02:05:21;7.20;;;1.75;;
71610;SDS011;59459;51.172;6.682;2022-12-28T02:07:52;11.90;;;2.13;;
71610;SDS011;59459;51.172;6.682;2022-12-28T02:10:19;6.07;;;1.90;;
71610;SDS011;59459;51.172;6.682;2022-12-28T02:12:44;7.20;;;1.90;;
71610;SDS011;59459;51.172;6.682;2022-12-28T02:15:10;6.90;;;1.63;;
71610;SDS011;59459;51.172;6.682;2022-12-28T02:17:35;5.47;;;2.30;;
71610;SDS011;59459;51.172;6.682;2022-12-28T02:20:00;7.17;;;1.90;;
71610;SDS011;59459;51.172;6.682;2022-12-28T02:22:43;5.47;;;1.30;;
71610;SDS011;59459;51.172;6.682;2022-12-28T02:30:23;5.63;;;1.50;;
71610;SDS011;59459;51.172;6.682;2022-12-28T02:35:35;4.03;;;1.13;;
71610;SDS011;59459;51.172;6.682;2022-12-28T02:38:09;5.70;;;2.08;;
71610;SDS011;59459;51.172;6.682;2022-12-28T02:40:40;7.37;;;1.20;;
71610;SDS011;59459;51.172;6.682;2022-12-28T02:43:06;3.80;;;0.98;;
71610;SDS011;59459;51.172;6.682;2022-12-28T02:48:22;7.00;;;1.30;;
71610;SDS011;59459;51.172;6.682;2022-12-28T02:56:42;5.32;;;2.33;;
71610;SDS011;59459;51.172;6.682;2022-12-28T02:59:23;4.27;;;0.80;;
71610;SDS011;59459;51.172;6.682;2022-12-28T03:12:45;4.70;;;1.37;;
71610;SDS011;59459;51.172;6.682;2022-12-28T03:15:13;4.43;;;1.38;;
71610;SDS011;59459;51.172;6.682;2022-12-28T03:17:40;4.35;;;1.38;;
71610;SDS011;59459;51.172;6.682;2022-12-28T03:20:25;3.20;;;1.15;;
71610;SDS011;59459;51.172;6.682;2022-12-28T03:23:12;4.70;;;1.13;;
71610;SDS011;59459;51.172;6.682;2022-12-28T03:25:57;3.20;;;0.90;;
71610;SDS011;59459;51.172;6.682;2022-12-28T03:28:42;4.40;;;1.27;;
71610;SDS011;59459;51.172;6.682;2022-12-28T03:31:26;4.10;;;1.20;;
71610;SDS011;59459;51.172;6.682;2022-12-28T03:33:53;4.20;;;0.95;;
71610;SDS011;59459;51.172;6.682;2022-12-28T03:41:52;5.40;;;0.88;;
71610;SDS011;59459;51.172;6.682;2022-12-28T03:44:16;7.65;;;0.85;;
71610;SDS011;59459;51.172;6.682;2022-12-28T03:46:50;4.40;;;1.17;;
71610;SDS011;59459;51.172;6.682;2022-12-28T03:49:16;2.92;;;1.10;;
71610;SDS011;59459;51.172;6.682;2022-12-28T03:51:41;6.53;;;1.27;;
71610;SDS011;59459;51.172;6.682;2022-12-28T03:54:07;3.70;;;0.80;;
71610;SDS011;59459;51.172;6.682;2022-12-28T03:56:32;3.70;;;0.90;;
71610;SDS011;59459;51.172;6.682;2022-12-28T03:58:57;3.30;;;0.80;;
71610;SDS011;59459;51.172;6.682;2022-12-28T04:01:22;4.20;;;1.50;;
71610;SDS011;59459;51.172;6.682;2022-12-28T04:03:48;3.17;;;1.13;;
71610;SDS011;59459;51.172;6.682;2022-12-28T04:06:14;3.53;;;1.10;;
71610;SDS011;59459;51.172;6.682;2022-12-28T04:08:40;2.83;;;0.67;;
71610;SDS011;59459;51.172;6.682;2022-12-28T04:11:05;2.67;;;0.80;;
71610;SDS011;59459;51.172;6.682;2022-12-28T04:13:31;2.73;;;0.80;;
71610;SDS011;59459;51.172;6.682;2022-12-28T04:15:57;6.13;;;1.10;;
71610;SDS011;59459;51.172;6.682;2022-12-28T04:18:23;3.60;;;0.95;;
71610;SDS011;59459;51.172;6.682;2022-12-28T04:20:48;2.37;;;1.00;;
71610;SDS011;59459;51.172;6.682;2022-12-28T04:23:14;5.03;;;0.80;;
71610;SDS011;59459;51.172;6.682;2022-12-28T04:25:39;3.60;;;1.50;;
71610;SDS011;59459;51.172;6.682;2022-12-28T04:28:04;3.53;;;0.90;;
71610;SDS011;59459;51.172;6.682;2022-12-28T04:30:29;4.67;;;1.20;;
71610;SDS011;59459;51.172;6.682;2022-12-28T04:32:54;3.50;;;1.20;;
71610;SDS011;59459;51.172;6.682;2022-12-28T04:35:20;3.93;;;1.10;;
71610;SDS011;59459;51.172;6.682;2022-12-28T04:37:45;5.70;;;1.67;;
71610;SDS011;59459;51.172;6.682;2022-12-28T04:40:10;6.50;;;1.57;;
71610;SDS011;59459;51.172;6.682;2022-12-28T04:42:35;5.13;;;1.30;;
71610;SDS011;59459;51.172;6.682;2022-12-28T04:45:01;6.70;;;1.20;;
71610;SDS011;59459;51.172;6.682;2022-12-28T04:47:26;6.33;;;1.43;;
71610;SDS011;59459;51.172;6.682;2022-12-28T04:49:52;3.90;;;1.08;;
71610;SDS011;59459;51.172;6.682;2022-12-28T04:52:17;10.23;;;1.90;;
71610;SDS011;59459;51.172;6.682;2022-12-28T04:54:42;7.87;;;2.40;;
71610;SDS011;59459;51.172;6.682;2022-12-28T04:57:07;6.53;;;1.83;;
71610;SDS011;59459;51.172;6.682;2022-12-28T04:59:32;4.93;;;1.93;;
71610;SDS011;59459;51.172;6.682;2022-12-28T05:01:58;5.23;;;1.10;;
71610;SDS011;59459;51.172;6.682;2022-12-28T05:04:23;6.33;;;1.80;;
71610;SDS011;59459;51.172;6.682;2022-12-28T05:06:48;5.87;;;1.50;;
71610;SDS011;59459;51.172;6.682;2022-12-28T05:09:13;4.23;;;1.20;;
71610;SDS011;59459;51.172;6.682;2022-12-28T05:11:38;5.27;;;1.37;;
71610;SDS011;59459;51.172;6.682;2022-12-28T05:14:04;3.67;;;0.87;;
71610;SDS011;59459;51.172;6.682;2022-12-28T05:16:29;5.07;;;1.07;;
71610;SDS011;59459;51.172;6.682;2022-12-28T05:18:55;4.10;;;1.23;;
71610;SDS011;59459;51.172;6.682;2022-12-28T05:21:22;6.23;;;1.10;;
71610;SDS011;59459;51.172;6.682;2022-12-28T05:23:48;3.42;;;0.70;;
71610;SDS011;59459;51.172;6.682;2022-12-28T05:26:14;6.32;;;1.50;;
71610;SDS011;59459;51.172;6.682;2022-12-28T05:28:40;5.93;;;1.27;;
71610;SDS011;59459;51.172;6.682;2022-12-28T05:31:06;5.30;;;0.97;;
71610;SDS011;59459;51.172;6.682;2022-12-28T05:33:32;3.03;;;0.97;;
71610;SDS011;59459;51.172;6.682;2022-12-28T05:36:08;2.97;;;0.88;;
71610;SDS011;59459;51.172;6.682;2022-12-28T05:38:33;4.57;;;1.20;;
71610;SDS011;59459;51.172;6.682;2022-12-28T05:41:05;3.37;;;0.80;;
71610;SDS011;59459;51.172;6.682;2022-12-28T05:43:31;4.07;;;0.80;;
71610;SDS011;59459;51.172;6.682;2022-12-28T05:46:02;4.33;;;0.90;;
71610;SDS011;59459;51.172;6.682;2022-12-28T05:48:32;3.03;;;0.90;;
71610;SDS011;59459;51.172;6.682;2022-12-28T05:51:01;3.25;;;0.73;;
71610;SDS011;59459;51.172;6.682;2022-12-28T05:53:27;4.70;;;1.20;;
71610;SDS011;59459;51.172;6.682;2022-12-28T05:55:52;4.37;;;0.80;;
71610;SDS011;59459;51.172;6.682;2022-12-28T05:58:18;4.67;;;1.00;;
71610;SDS011;59459;51.172;6.682;2022-12-28T06:00:43;5.17;;;1.13;;
71610;SDS011;59459;51.172;6.682;2022-12-28T06:03:08;2.70;;;0.70;;
71610;SDS011;59459;51.172;6.682;2022-12-28T06:05:33;5.23;;;1.07;;
71610;SDS011;59459;51.172;6.682;2022-12-28T06:07:58;2.90;;;1.10;;
71610;SDS011;59459;51.172;6.682;2022-12-28T06:10:23;3.70;;;0.97;;
71610;SDS011;59459;51.172;6.682;2022-12-28T06:12:49;4.50;;;1.13;;
71610;SDS011;59459;51.172;6.682;2022-12-28T06:15:14;3.43;;;0.97;;
71610;SDS011;59459;51.172;6.682;2022-12-28T06:17:39;3.90;;;0.83;;
71610;SDS011;59459;51.172;6.682;2022-12-28T06:20:04;3.53;;;0.70;;
71610;SDS011;59459;51.172;6.682;2022-12-28T06:22:30;3.42;;;0.88;;
71610;SDS011;59459;51.172;6.682;2022-12-28T06:24:55;3.30;;;0.90;;
71610;SDS011;59459;51.172;6.682;2022-12-28T06:27:20;3.50;;;0.90;;
71610;SDS011;59459;51.172;6.682;2022-12-28T06:29:45;3.10;;;0.83;;
71610;SDS011;59459;51.172;6.682;2022-12-28T06:32:10;4.53;;;0.80;;
71610;SDS011;59459;51.172;6.682;2022-12-28T06:34:36;5.23;;;0.90;;
71610;SDS011;59459;51.172;6.682;2022-12-28T06:37:01;4.23;;;1.33;;
71610;SDS011;59459;51.172;6.682;2022-12-28T06:39:28;5.93;;;0.80;;
71610;SDS011;59459;51.172;6.682;2022-12-28T06:41:53;2.53;;;0.77;;
71610;SDS011;59459;51.172;6.682;2022-12-28T06:44:18;5.33;;;0.90;;
71610;SDS011;59459;51.172;6.682;2022-12-28T06:46:43;4.87;;;0.83;;
71610;SDS011;59459;51.172;6.682;2022-12-28T06:49:08;3.20;;;1.10;;
71610;SDS011;59459;51.172;6.682;2022-12-28T06:51:35;4.47;;;0.70;;
71610;SDS011;59459;51.172;6.682;2022-12-28T06:54:02;6.03;;;1.00;;
71610;SDS011;59459;51.172;6.682;2022-12-28T06:56:28;5.38;;;1.00;;
71610;SDS011;59459;51.172;6.682;2022-12-28T06:58:55;2.70;;;0.90;;
71610;SDS011;59459;51.172;6.682;2022-12-28T07:01:21;4.13;;;1.00;;
71610;SDS011;59459;51.172;6.682;2022-12-28T07:03:47;3.03;;;1.20;;
71610;SDS011;59459;51.172;6.682;2022-12-28T07:06:13;5.33;;;0.87;;
71610;SDS011;59459;51.172;6.682;2022-12-28T07:08:39;4.63;;;0.88;;
71610;SDS011;59459;51.172;6.682;2022-12-28T07:11:06;4.33;;;1.03;;
71610;SDS011;59459;51.172;6.682;2022-12-28T07:13:31;2.90;;;0.60;;
71610;SDS011;59459;51.172;6.682;2022-12-28T07:16:00;5.93;;;1.20;;
71610;SDS011;59459;51.172;6.682;2022-12-28T07:18:25;3.77;;;0.73;;
71610;SDS011;59459;51.172;6.682;2022-12-28T07:20:56;5.38;;;0.90;;
71610;SDS011;59459;51.172;6.682;2022-12-28T07:23:21;3.28;;;1.02;;
71610;SDS011;59459;51.172;6.682;2022-12-28T07:25:47;4.93;;;0.80;;
71610;SDS011;59459;51.172;6.682;2022-12-28T07:28:12;3.93;;;1.10;;
71610;SDS011;59459;51.172;6.682;2022-12-28T07:30:37;5.03;;;1.00;;
71610;SDS011;59459;51.172;6.682;2022-12-28T07:33:02;3.20;;;0.70;;
71610;SDS011;59459;51.172;6.682;2022-12-28T07:35:28;3.27;;;0.70;;
71610;SDS011;59459;51.172;6.682;2022-12-28T07:37:53;4.17;;;0.77;;
71610;SDS011;59459;51.172;6.682;2022-12-28T07:40:18;2.13;;;0.83;;
71610;SDS011;59459;51.172;6.682;2022-12-28T07:42:43;2.40;;;0.60;;
71610;SDS011;59459;51.172;6.682;2022-12-28T07:45:08;4.83;;;0.80;;
71610;SDS011;59459;51.172;6.682;2022-12-28T07:47:36;2.05;;;0.68;;
71610;SDS011;59459;51.172;6.682;2022-12-28T07:50:02;3.40;;;0.70;;
71610;SDS011;59459;51.172;6.682;2022-12-28T07:52:27;3.63;;;0.88;;
71610;SDS011;59459;51.172;6.682;2022-12-28T07:54:53;4.77;;;0.90;;
71610;SDS011;59459;51.172;6.682;2022-12-28T07:57:18;2.80;;;0.80;;
71610;SDS011;59459;51.172;6.682;2022-12-28T07:59:43;2.43;;;0.60;;
71610;SDS011;59459;51.172;6.682;2022-12-28T08:02:08;2.63;;;0.67;;
71610;SDS011;59459;51.172;6.682;2022-12-28T08:04:34;2.58;;;0.60;;
71610;SDS011;59459;51.172;6.682;2022-12-28T08:06:59;3.60;;;0.63;;
71610;SDS011;59459;51.172;6.682;2022-12-28T08:09:24;2.37;;;0.80;;
71610;SDS011;59459;51.172;6.682;2022-12-28T08:11:50;2.77;;;0.80;;
71610;SDS011;59459;51.172;6.682;2022-12-28T08:14:15;2.33;;;0.57;;
71610;SDS011;59459;51.172;6.682;2022-12-28T08:16:41;2.87;;;0.80;;
71610;SDS011;59459;51.172;6.682;2022-12-28T08:19:07;2.22;;;0.63;;
71610;SDS011;59459;51.172;6.682;2022-12-28T08:21:36;3.47;;;1.00;;
71610;SDS011;59459;51.172;6.682;2022-12-28T08:24:01;3.17;;;0.70;;
71610;SDS011;59459;51.172;6.682;2022-12-28T08:28:53;3.20;;;0.73;;
71610;SDS011;59459;51.172;6.682;2022-12-28T08:31:22;2.45;;;0.50;;
71610;SDS011;59459;51.172;6.682;2022-12-28T08:33:48;3.90;;;0.73;;
71610;SDS011;59459;51.172;6.682;2022-12-28T08:36:13;3.50;;;1.00;;
71610;SDS011;59459;51.172;6.682;2022-12-28T08:38:39;1.80;;;0.50;;
71610;SDS011;59459;51.172;6.682;2022-12-28T08:41:05;3.28;;;0.77;;
71610;SDS011;59459;51.172;6.682;2022-12-28T08:43:31;3.33;;;0.80;;
71610;SDS011;59459;51.172;6.682;2022-12-28T08:45:57;3.23;;;1.00;;
71610;SDS011;59459;51.172;6.682;2022-12-28T08:48:23;3.08;;;0.82;;
71610;SDS011;59459;51.172;6.682;2022-12-28T08:50:48;1.93;;;0.80;;
71610;SDS011;59459;51.172;6.682;2022-12-28T08:53:13;4.83;;;0.90;;
71610;SDS011;59459;51.172;6.682;2022-12-28T08:55:39;7.10;;;2.00;;
71610;SDS011;59459;51.172;6.682;2022-12-28T08:58:04;5.33;;;0.90;;
71610;SDS011;59459;51.172;6.682;2022-12-28T09:00:29;3.97;;;1.40;;
71610;SDS011;59459;51.172;6.682;2022-12-28T09:02:57;3.93;;;1.20;;
71610;SDS011;59459;51.172;6.682;2022-12-28T09:05:22;4.40;;;1.05;;
71610;SDS011;59459;51.172;6.682;2022-12-28T09:07:47;2.83;;;0.77;;
71610;SDS011;59459;51.172;6.682;2022-12-28T09:10:14;2.13;;;0.70;;
71610;SDS011;59459;51.172;6.682;2022-12-28T09:12:40;4.83;;;2.17;;
71610;SDS011;59459;51.172;6.682;2022-12-28T09:15:05;2.23;;;0.53;;
71610;SDS011;59459;51.172;6.682;2022-12-28T09:17:30;4.30;;;1.00;;
71610;SDS011;59459;51.172;6.682;2022-12-28T09:19:55;3.37;;;1.00;;
71610;SDS011;59459;51.172;6.682;2022-12-28T09:22:21;2.13;;;0.80;;
71610;SDS011;59459;51.172;6.682;2022-12-28T09:24:46;2.40;;;0.70;;
71610;SDS011;59459;51.172;6.682;2022-12-28T09:27:11;2.10;;;0.70;;
71610;SDS011;59459;51.172;6.682;2022-12-28T09:29:36;2.60;;;0.90;;
71610;SDS011;59459;51.172;6.682;2022-12-28T09:32:01;2.17;;;0.60;;
71610;SDS011;59459;51.172;6.682;2022-12-28T09:34:27;2.87;;;0.80;;
71610;SDS011;59459;51.172;6.682;2022-12-28T09:36:52;4.20;;;0.80;;
71610;SDS011;59459;51.172;6.682;2022-12-28T09:39:18;2.17;;;0.70;;
71610;SDS011;59459;51.172;6.682;2022-12-28T09:41:45;2.60;;;0.63;;
71610;SDS011;59459;51.172;6.682;2022-12-28T09:47:02;4.40;;;0.70;;
71610;SDS011;59459;51.172;6.682;2022-12-28T09:49:46;4.63;;;0.82;;
71610;SDS011;59459;51.172;6.682;2022-12-28T09:54:39;3.50;;;0.63;;
71610;SDS011;59459;51.172;6.682;2022-12-28T09:57:06;2.93;;;0.60;;
71610;SDS011;59459;51.172;6.682;2022-12-28T09:59:34;3.60;;;0.70;;
71610;SDS011;59459;51.172;6.682;2022-12-28T10:02:01;2.03;;;0.70;;
71610;SDS011;59459;51.172;6.682;2022-12-28T10:04:27;1.90;;;1.20;;
71610;SDS011;59459;51.172;6.682;2022-12-28T10:06:53;1.13;;;0.60;;
71610;SDS011;59459;51.172;6.682;2022-12-28T10:09:24;3.70;;;0.70;;
71610;SDS011;59459;51.172;6.682;2022-12-28T10:11:49;2.60;;;1.00;;
71610;SDS011;59459;51.172;6.682;2022-12-28T10:14:18;3.27;;;0.57;;
71610;SDS011;59459;51.172;6.682;2022-12-28T10:16:44;2.53;;;0.60;;
71610;SDS011;59459;51.172;6.682;2022-12-28T10:19:11;5.07;;;0.70;;
71610;SDS011;59459;51.172;6.682;2022-12-28T10:21:37;2.83;;;0.68;;
71610;SDS011;59459;51.172;6.682;2022-12-28T10:24:04;2.10;;;0.60;;
71610;SDS011;59459;51.172;6.682;2022-12-28T10:26:30;3.08;;;0.70;;
71610;SDS011;59459;51.172;6.682;2022-12-28T10:28:57;2.42;;;0.60;;
71610;SDS011;59459;51.172;6.682;2022-12-28T10:31:36;2.35;;;0.93;;
71610;SDS011;59459;51.172;6.682;2022-12-28T10:34:10;4.40;;;0.82;;
71610;SDS011;59459;51.172;6.682;2022-12-28T10:36:39;3.10;;;0.80;;
71610;SDS011;59459;51.172;6.682;2022-12-28T10:39:04;1.73;;;0.60;;
71610;SDS011;59459;51.172;6.682;2022-12-28T10:41:32;2.23;;;0.60;;
71610;SDS011;59459;51.172;6.682;2022-12-28T10:43:57;2.58;;;0.75;;
71610;SDS011;59459;51.172;6.682;2022-12-28T10:46:22;1.77;;;0.70;;
71610;SDS011;59459;51.172;6.682;2022-12-28T10:48:54;3.67;;;0.70;;
71610;SDS011;59459;51.172;6.682;2022-12-28T10:51:21;2.45;;;0.73;;
71610;SDS011;59459;51.172;6.682;2022-12-28T10:53:48;2.65;;;0.80;;
71610;SDS011;59459;51.172;6.682;2022-12-28T10:58:42;3.50;;;1.07;;
71610;SDS011;59459;51.172;6.682;2022-12-28T11:03:36;2.97;;;0.70;;
71610;SDS011;59459;51.172;6.682;2022-12-28T11:08:40;3.22;;;0.50;;
71610;SDS011;59459;51.172;6.682;2022-12-28T11:11:06;2.33;;;0.55;;
71610;SDS011;59459;51.172;6.682;2022-12-28T11:13:31;2.50;;;0.90;;
71610;SDS011;59459;51.172;6.682;2022-12-28T11:15:56;3.10;;;1.10;;
71610;SDS011;59459;51.172;6.682;2022-12-28T11:18:22;3.13;;;0.80;;
71610;SDS011;59459;51.172;6.682;2022-12-28T11:20:48;4.03;;;0.97;;
71610;SDS011;59459;51.172;6.682;2022-12-28T11:23:17;4.60;;;0.82;;
71610;SDS011;59459;51.172;6.682;2022-12-28T11:25:43;4.37;;;0.60;;
71610;SDS011;59459;51.172;6.682;2022-12-28T11:28:13;2.07;;;0.57;;
71610;SDS011;59459;51.172;6.682;2022-12-28T11:30:40;2.28;;;0.70;;
71610;SDS011;59459;51.172;6.682;2022-12-28T11:33:05;3.03;;;1.27;;
71610;SDS011;59459;51.172;6.682;2022-12-28T11:35:34;5.88;;;0.90;;
71610;SDS011;59459;51.172;6.682;2022-12-28T11:38:02;4.20;;;1.00;;
71610;SDS011;59459;51.172;6.682;2022-12-28T11:43:54;3.60;;;0.85;;
71610;SDS011;59459;51.172;6.682;2022-12-28T11:51:04;5.18;;;1.17;;
71610;SDS011;59459;51.172;6.682;2022-12-28T11:56:05;6.32;;;1.40;;
71610;SDS011;59459;51.172;6.682;2022-12-28T12:00:59;4.65;;;1.10;;
71610;SDS011;59459;51.172;6.682;2022-12-28T12:06:10;3.73;;;1.10;;
71610;SDS011;59459;51.172;6.682;2022-12-28T12:08:38;4.97;;;0.83;;
71610;SDS011;59459;51.172;6.682;2022-12-28T12:13:48;4.88;;;1.00;;
71610;SDS011;59459;51.172;6.682;2022-12-28T12:16:25;3.92;;;0.70;;
71610;SDS011;59459;51.172;6.682;2022-12-28T12:18:54;3.13;;;0.80;;
71610;SDS011;59459;51.172;6.682;2022-12-28T12:23:52;4.87;;;0.90;;
71610;SDS011;59459;51.172;6.682;2022-12-28T12:31:42;5.82;;;0.98;;
71610;SDS011;59459;51.172;6.682;2022-12-28T12:34:16;5.97;;;0.90;;
71610;SDS011;59459;51.172;6.682;2022-12-28T12:39:35;2.65;;;0.63;;
71610;SDS011;59459;51.172;6.682;2022-12-28T12:42:16;3.65;;;0.73;;
71610;SDS011;59459;51.172;6.682;2022-12-28T12:44:55;2.30;;;0.70;;
71610;SDS011;59459;51.172;6.682;2022-12-28T13:00:14;3.57;;;1.20;;
71610;SDS011;59459;51.172;6.682;2022-12-28T13:05:19;1.83;;;0.60;;
71610;SDS011;59459;51.172;6.682;2022-12-28T13:07:45;3.35;;;0.82;;
71610;SDS011;59459;51.172;6.682;2022-12-28T13:10:15;5.13;;;1.00;;
71610;SDS011;59459;51.172;6.682;2022-12-28T13:12:41;3.90;;;0.93;;
71610;SDS011;59459;51.172;6.682;2022-12-28T13:15:06;1.93;;;0.70;;
71610;SDS011;59459;51.172;6.682;2022-12-28T13:17:32;4.15;;;1.02;;
71610;SDS011;59459;51.172;6.682;2022-12-28T13:20:18;3.37;;;0.70;;
71610;SDS011;59459;51.172;6.682;2022-12-28T13:22:44;1.70;;;0.60;;
71610;SDS011;59459;51.172;6.682;2022-12-28T13:28:16;3.10;;;0.82;;
71610;SDS011;59459;51.172;6.682;2022-12-28T13:30:41;2.60;;;0.80;;
71610;SDS011;59459;51.172;6.682;2022-12-28T13:33:19;2.20;;;0.50;;
71610;SDS011;59459;51.172;6.682;2022-12-28T13:35:45;3.70;;;0.80;;
71610;SDS011;59459;51.172;6.682;2022-12-28T13:38:14;3.60;;;1.33;;
71610;SDS011;59459;51.172;6.682;2022-12-28T13:40:47;3.80;;;1.00;;
71610;SDS011;59459;51.172;6.682;2022-12-28T13:43:20;4.53;;;0.80;;
71610;SDS011;59459;51.172;6.682;2022-12-28T13:45:57;3.00;;;0.75;;
71610;SDS011;59459;51.172;6.682;2022-12-28T13:48:24;5.53;;;0.87;;
71610;SDS011;59459;51.172;6.682;2022-12-28T13:50:50;3.72;;;0.70;;
71610;SDS011;59459;51.172;6.682;2022-12-28T13:53:21;5.47;;;1.55;;
71610;SDS011;59459;51.172;6.682;2022-12-28T13:55:50;4.18;;;0.90;;
71610;SDS011;59459;51.172;6.682;2022-12-28T13:58:23;3.92;;;0.85;;
71610;SDS011;59459;51.172;6.682;2022-12-28T14:00:51;5.87;;;1.00;;
71610;SDS011;59459;51.172;6.682;2022-12-28T14:03:17;3.15;;;1.02;;
71610;SDS011;59459;51.172;6.682;2022-12-28T14:05:43;3.33;;;1.45;;
71610;SDS011;59459;51.172;6.682;2022-12-28T14:08:11;3.55;;;1.20;;
71610;SDS011;59459;51.172;6.682;2022-12-28T14:10:36;4.10;;;1.37;;
71610;SDS011;59459;51.172;6.682;2022-12-28T14:13:01;4.70;;;1.30;;
71610;SDS011;59459;51.172;6.682;2022-12-28T14:15:27;4.03;;;1.20;;
71610;SDS011;59459;51.172;6.682;2022-12-28T14:17:53;5.53;;;1.13;;
71610;SDS011;59459;51.172;6.682;2022-12-28T14:20:18;4.73;;;1.30;;
71610;SDS011;59459;51.172;6.682;2022-12-28T14:22:43;6.33;;;1.50;;
71610;SDS011;59459;51.172;6.682;2022-12-28T14:25:12;3.67;;;1.10;;
71610;SDS011;59459;51.172;6.682;2022-12-28T14:27:39;3.67;;;1.10;;
71610;SDS011;59459;51.172;6.682;2022-12-28T14:30:05;4.53;;;1.52;;
71610;SDS011;59459;51.172;6.682;2022-12-28T14:32:31;6.90;;;2.73;;
71610;SDS011;59459;51.172;6.682;2022-12-28T14:34:57;5.65;;;2.00;;
71610;SDS011;59459;51.172;6.682;2022-12-28T14:37:24;4.80;;;1.05;;
71610;SDS011;59459;51.172;6.682;2022-12-28T14:39:50;5.97;;;2.13;;
71610;SDS011;59459;51.172;6.682;2022-12-28T14:42:19;15.67;;;2.17;;
71610;SDS011;59459;51.172;6.682;2022-12-28T14:44:45;4.67;;;0.97;;
71610;SDS011;59459;51.172;6.682;2022-12-28T14:49:56;10.83;;;2.40;;
71610;SDS011;59459;51.172;6.682;2022-12-28T14:52:35;8.20;;;2.38;;
71610;SDS011;59459;51.172;6.682;2022-12-28T14:55:18;5.60;;;1.73;;
71610;SDS011;59459;51.172;6.682;2022-12-28T14:57:44;4.13;;;1.33;;
71610;SDS011;59459;51.172;6.682;2022-12-28T15:00:26;5.50;;;1.70;;
71610;SDS011;59459;51.172;6.682;2022-12-28T15:02:51;5.55;;;2.10;;
71610;SDS011;59459;51.172;6.682;2022-12-28T15:05:39;7.17;;;1.33;;
71610;SDS011;59459;51.172;6.682;2022-12-28T15:08:03;3.22;;;1.13;;
71610;SDS011;59459;51.172;6.682;2022-12-28T15:10:28;5.60;;;1.57;;
71610;SDS011;59459;51.172;6.682;2022-12-28T15:12:54;4.57;;;1.33;;
71610;SDS011;59459;51.172;6.682;2022-12-28T15:15:19;3.33;;;1.03;;
71610;SDS011;59459;51.172;6.682;2022-12-28T15:17:45;5.67;;;1.10;;
71610;SDS011;59459;51.172;6.682;2022-12-28T15:20:11;3.03;;;1.27;;
71610;SDS011;59459;51.172;6.682;2022-12-28T15:22:36;5.60;;;1.40;;
71610;SDS011;59459;51.172;6.682;2022-12-28T15:25:01;7.30;;;2.30;;
71610;SDS011;59459;51.172;6.682;2022-12-28T15:27:26;5.10;;;1.10;;
71610;SDS011;59459;51.172;6.682;2022-12-28T15:29:51;4.33;;;1.50;;
71610;SDS011;59459;51.172;6.682;2022-12-28T15:32:17;3.67;;;1.00;;
71610;SDS011;59459;51.172;6.682;2022-12-28T15:34:42;6.10;;;2.63;;
71610;SDS011;59459;51.172;6.682;2022-12-28T15:37:07;3.73;;;1.20;;
71610;SDS011;59459;51.172;6.682;2022-12-28T15:39:32;4.30;;;1.53;;
71610;SDS011;59459;51.172;6.682;2022-12-28T15:41:57;6.40;;;2.50;;
71610;SDS011;59459;51.172;6.682;2022-12-28T15:44:23;6.07;;;1.60;;
71610;SDS011;59459;51.172;6.682;2022-12-28T15:46:48;4.27;;;1.30;;
71610;SDS011;59459;51.172;6.682;2022-12-28T15:49:16;5.15;;;2.03;;
71610;SDS011;59459;51.172;6.682;2022-12-28T15:51:42;2.57;;;0.90;;
71610;SDS011;59459;51.172;6.682;2022-12-28T15:54:08;5.47;;;1.53;;
71610;SDS011;59459;51.172;6.682;2022-12-28T15:56:35;2.13;;;0.77;;
71610;SDS011;59459;51.172;6.682;2022-12-28T15:59:01;5.40;;;2.17;;
71610;SDS011;59459;51.172;6.682;2022-12-28T16:01:26;4.32;;;1.55;;
71610;SDS011;59459;51.172;6.682;2022-12-28T16:03:54;4.32;;;1.15;;
71610;SDS011;59459;51.172;6.682;2022-12-28T16:06:19;5.60;;;1.40;;
71610;SDS011;59459;51.172;6.682;2022-12-28T16:08:45;3.88;;;1.65;;
71610;SDS011;59459;51.172;6.682;2022-12-28T16:11:12;4.17;;;1.50;;
71610;SDS011;59459;51.172;6.682;2022-12-28T16:13:37;4.97;;;1.45;;
71610;SDS011;59459;51.172;6.682;2022-12-28T16:16:06;5.70;;;1.63;;
71610;SDS011;59459;51.172;6.682;2022-12-28T16:18:32;4.95;;;2.00;;
71610;SDS011;59459;51.172;6.682;2022-12-28T16:21:00;6.63;;;1.77;;
71610;SDS011;59459;51.172;6.682;2022-12-28T16:23:28;5.85;;;2.88;;
71610;SDS011;59459;51.172;6.682;2022-12-28T16:25:53;9.68;;;5.38;;